createdAt,value
2023-06-19T00:00:20.531Z,0.00
2023-06-19T00:01:20.618Z,0.00
2023-06-19T00:02:20.506Z,0.00
2023-06-19T00:03:20.533Z,0.00
2023-06-19T00:04:20.617Z,0.00
2023-06-19T00:05:20.512Z,0.00
2023-06-19T00:06:20.518Z,0.00
2023-06-19T00:07:20.500Z,0.00
2023-06-19T00:08:20.521Z,0.00
2023-06-19T00:09:20.522Z,0.00
2023-06-19T00:10:20.519Z,0.00
2023-06-19T00:11:20.487Z,0.00
2023-06-19T00:12:20.453Z,0.00
2023-06-19T00:13:20.463Z,0.00
2023-06-19T00:14:20.451Z,0.00
2023-06-19T00:15:20.450Z,0.00
2023-06-19T00:16:20.499Z,0.00
2023-06-19T00:17:20.475Z,0.00
2023-06-19T00:18:20.471Z,0.00
2023-06-19T00:19:20.414Z,0.00
2023-06-19T00:20:20.597Z,0.00
2023-06-19T00:21:20.449Z,0.00
2023-06-19T00:22:20.436Z,0.00
2023-06-19T00:23:20.441Z,0.00
2023-06-19T00:24:20.453Z,0.00
2023-06-19T00:25:20.378Z,0.00
2023-06-19T00:26:20.394Z,0.00
2023-06-19T00:27:20.371Z,0.00
2023-06-19T00:28:20.375Z,0.00
2023-06-19T00:29:20.371Z,0.00
2023-06-19T00:30:20.459Z,0.00
2023-06-19T00:31:20.569Z,0.00
2023-06-19T00:32:20.396Z,0.00
2023-06-19T00:33:20.345Z,0.00
2023-06-19T00:34:20.368Z,0.00
2023-06-19T00:35:20.343Z,0.00
2023-06-19T00:36:20.332Z,0.00
2023-06-19T00:37:20.315Z,0.00
2023-06-19T00:38:20.352Z,0.00
2023-06-19T00:39:20.319Z,0.00
2023-06-19T00:40:20.321Z,0.00
2023-06-19T00:41:20.290Z,0.00
2023-06-19T00:42:20.317Z,0.00
2023-06-19T00:43:20.286Z,0.00
2023-06-19T00:44:20.310Z,0.00
2023-06-19T00:45:20.283Z,0.00
2023-06-19T00:46:20.398Z,0.00
2023-06-19T00:47:20.254Z,0.00
2023-06-19T00:48:20.262Z,0.00
2023-06-19T00:49:20.247Z,0.00
2023-06-19T00:50:20.245Z,0.00
2023-06-19T00:51:20.252Z,0.00
2023-06-19T00:52:20.265Z,0.00
2023-06-19T00:53:20.423Z,0.00
2023-06-19T00:54:20.269Z,0.00
2023-06-19T00:55:20.230Z,0.00
2023-06-19T00:56:20.262Z,0.00
2023-06-19T00:57:20.257Z,0.00
2023-06-19T00:58:20.202Z,0.00
2023-06-19T00:59:20.199Z,0.00
2023-06-19T01:00:20.188Z,0.00
2023-06-19T01:01:20.195Z,0.00
2023-06-19T01:02:20.291Z,0.00
2023-06-19T01:03:20.217Z,0.00
2023-06-19T01:04:20.354Z,0.00
2023-06-19T01:05:20.172Z,0.00
2023-06-19T01:06:20.176Z,0.00
2023-06-19T01:07:20.137Z,0.00
2023-06-19T01:08:20.139Z,0.00
2023-06-19T01:09:20.126Z,0.00
2023-06-19T01:10:20.366Z,0.00
2023-06-19T01:11:26.869Z,0.00
2023-06-19T01:12:20.143Z,0.00
2023-06-19T01:13:20.146Z,0.00
2023-06-19T01:14:20.164Z,0.00
2023-06-19T01:15:20.127Z,0.00
2023-06-19T01:16:20.143Z,0.00
2023-06-19T01:17:20.134Z,0.00
2023-06-19T01:18:20.316Z,0.00
2023-06-19T01:19:20.114Z,0.00
2023-06-19T01:20:20.196Z,0.00
2023-06-19T01:21:20.078Z,0.00
2023-06-19T01:22:20.102Z,0.00
2023-06-19T01:23:20.060Z,0.00
2023-06-19T01:24:20.185Z,0.00
2023-06-19T01:25:20.077Z,0.00
2023-06-19T01:26:20.115Z,0.00
2023-06-19T01:27:20.029Z,0.00
2023-06-19T01:28:20.123Z,0.00
2023-06-19T01:29:20.155Z,0.00
2023-06-19T01:30:20.037Z,0.00
2023-06-19T01:31:20.016Z,0.00
2023-06-19T01:32:20.042Z,0.00
2023-06-19T01:33:20.059Z,0.00
2023-06-19T01:34:20.044Z,0.00
2023-06-19T01:35:20.004Z,0.00
2023-06-19T01:36:20.002Z,0.00
2023-06-19T01:37:20.060Z,0.00
2023-06-19T01:38:20.000Z,0.00
2023-06-19T01:39:20.034Z,0.00
2023-06-19T01:40:19.978Z,0.00
2023-06-19T01:41:20.030Z,0.00
2023-06-19T01:42:20.044Z,0.00
2023-06-19T01:43:20.053Z,0.00
2023-06-19T01:44:20.186Z,0.00
2023-06-19T01:45:19.953Z,0.00
2023-06-19T01:46:19.990Z,0.00
2023-06-19T01:47:19.926Z,0.00
2023-06-19T01:48:20.000Z,0.00
2023-06-19T01:49:19.917Z,0.00
2023-06-19T01:50:19.905Z,0.00
2023-06-19T01:51:19.901Z,0.00
2023-06-19T01:52:19.880Z,0.00
2023-06-19T01:53:19.887Z,0.00
2023-06-19T01:54:19.871Z,0.00
2023-06-19T01:55:19.872Z,0.00
2023-06-19T01:56:19.872Z,0.00
2023-06-19T01:57:19.858Z,0.00
2023-06-19T01:58:19.899Z,0.00
2023-06-19T01:59:19.888Z,0.00
2023-06-19T02:00:19.901Z,0.00
2023-06-19T02:01:19.850Z,0.00
2023-06-19T02:02:19.915Z,0.00
2023-06-19T02:03:19.924Z,0.00
2023-06-19T02:04:19.846Z,0.00
2023-06-19T02:05:19.868Z,0.00
2023-06-19T02:06:19.823Z,0.00
2023-06-19T02:07:19.839Z,0.00
2023-06-19T02:08:19.844Z,0.00
2023-06-19T02:09:19.851Z,0.00
2023-06-19T02:10:19.817Z,0.00
2023-06-19T02:11:19.790Z,0.00
2023-06-19T02:12:19.833Z,0.00
2023-06-19T02:13:19.798Z,0.00
2023-06-19T02:14:19.781Z,0.00
2023-06-19T02:15:19.769Z,0.00
2023-06-19T02:16:19.855Z,0.00
2023-06-19T02:17:19.796Z,0.00
2023-06-19T02:18:19.746Z,0.00
2023-06-19T02:19:19.775Z,0.00
2023-06-19T02:20:19.781Z,0.00
2023-06-19T02:21:19.789Z,0.00
2023-06-19T02:22:19.726Z,0.00
2023-06-19T02:23:19.736Z,0.00
2023-06-19T02:24:19.796Z,0.00
2023-06-19T02:25:19.710Z,0.00
2023-06-19T02:26:19.696Z,0.00
2023-06-19T02:27:19.691Z,0.00
2023-06-19T02:28:19.731Z,0.00
2023-06-19T02:29:19.700Z,0.00
2023-06-19T02:30:19.724Z,0.00
2023-06-19T02:31:19.649Z,0.00
2023-06-19T02:32:19.698Z,0.00
2023-06-19T02:33:19.674Z,0.00
2023-06-19T02:34:19.678Z,4.00
2023-06-19T02:35:19.677Z,4.00
2023-06-19T02:36:19.717Z,4.00
2023-06-19T02:37:19.682Z,0.00
2023-06-19T02:38:19.683Z,0.00
2023-06-19T02:39:19.663Z,0.00
2023-06-19T02:40:19.634Z,4.00
2023-06-19T02:41:19.637Z,4.00
2023-06-19T02:42:19.640Z,4.00
2023-06-19T02:43:19.609Z,0.00
2023-06-19T02:44:19.593Z,0.00
2023-06-19T02:45:19.592Z,4.00
2023-06-19T02:46:19.651Z,4.00
2023-06-19T02:47:19.615Z,4.00
2023-06-19T02:48:19.588Z,4.00
2023-06-19T02:49:19.635Z,4.00
2023-06-19T02:50:19.569Z,4.00
2023-06-19T02:51:19.549Z,4.00
2023-06-19T02:52:19.578Z,4.00
2023-06-19T02:53:19.589Z,4.00
2023-06-19T02:54:19.590Z,8.00
2023-06-19T02:55:19.561Z,4.00
2023-06-19T02:56:19.536Z,8.00
2023-06-19T02:57:19.529Z,8.00
2023-06-19T02:58:19.528Z,8.00
2023-06-19T02:59:19.676Z,12.00
2023-06-19T03:00:19.576Z,8.00
2023-06-19T03:01:19.566Z,12.00
2023-06-19T03:02:19.598Z,12.00
2023-06-19T03:03:19.647Z,12.00
2023-06-19T03:04:19.638Z,12.00
2023-06-19T03:05:19.461Z,16.00
2023-06-19T03:06:19.484Z,12.00
2023-06-19T03:07:19.466Z,16.00
2023-06-19T03:08:19.497Z,16.00
2023-06-19T03:09:19.479Z,20.00
2023-06-19T03:10:19.505Z,20.00
2023-06-19T03:11:19.458Z,20.00
2023-06-19T03:12:19.450Z,24.00
2023-06-19T03:13:19.650Z,28.00
2023-06-19T03:14:19.417Z,28.00
2023-06-19T03:15:19.430Z,32.00
2023-06-19T03:16:19.481Z,36.00
2023-06-19T03:17:19.549Z,40.00
2023-06-19T03:18:19.466Z,44.00
2023-06-19T03:19:19.416Z,48.00
2023-06-19T03:20:19.416Z,56.00
2023-06-19T03:21:19.382Z,60.00
2023-06-19T03:22:19.431Z,64.00
2023-06-19T03:23:19.362Z,68.00
2023-06-19T03:24:19.419Z,72.00
2023-06-19T03:25:19.358Z,80.00
2023-06-19T03:26:19.389Z,84.00
2023-06-19T03:27:19.394Z,88.00
2023-06-19T03:28:19.351Z,88.00
2023-06-19T03:29:19.360Z,84.00
2023-06-19T03:30:19.377Z,80.00
2023-06-19T03:31:19.340Z,80.00
2023-06-19T03:32:19.407Z,76.00
2023-06-19T03:33:19.336Z,72.00
2023-06-19T03:34:19.382Z,76.00
2023-06-19T03:35:19.342Z,76.00
2023-06-19T03:36:19.320Z,80.00
2023-06-19T03:37:19.307Z,80.00
2023-06-19T03:38:19.308Z,84.00
2023-06-19T03:39:19.303Z,80.00
2023-06-19T03:40:19.322Z,84.00
2023-06-19T03:41:19.286Z,84.00
2023-06-19T03:42:19.327Z,84.00
2023-06-19T03:43:19.343Z,84.00
2023-06-19T03:44:19.305Z,84.00
2023-06-19T03:45:19.255Z,88.00
2023-06-19T03:46:19.305Z,88.00
2023-06-19T03:47:19.301Z,92.00
2023-06-19T03:48:19.267Z,92.00
2023-06-19T03:49:19.338Z,92.00
2023-06-19T03:50:21.509Z,96.00
2023-06-19T03:51:19.298Z,100.00
2023-06-19T03:52:19.248Z,104.00
2023-06-19T03:53:19.224Z,108.00
2023-06-19T03:54:19.199Z,112.00
2023-06-19T03:55:19.226Z,116.00
2023-06-19T03:56:19.211Z,128.00
2023-06-19T03:57:19.193Z,132.00
2023-06-19T03:58:19.169Z,136.00
2023-06-19T03:59:19.206Z,144.00
2023-06-19T04:00:19.265Z,160.00
2023-06-19T04:01:19.256Z,172.00
2023-06-19T04:02:19.210Z,184.00
2023-06-19T04:03:19.235Z,196.00
2023-06-19T04:04:19.185Z,212.00
2023-06-19T04:05:19.234Z,228.00
2023-06-19T04:06:19.394Z,240.00
2023-06-19T04:07:19.113Z,252.00
2023-06-19T04:08:19.140Z,256.00
2023-06-19T04:09:19.181Z,260.00
2023-06-19T04:10:19.168Z,252.00
2023-06-19T04:11:19.174Z,244.00
2023-06-19T04:12:19.125Z,236.00
2023-06-19T04:13:19.120Z,224.00
2023-06-19T04:14:19.129Z,220.00
2023-06-19T04:15:19.126Z,216.00
2023-06-19T04:16:19.285Z,216.00
2023-06-19T04:17:19.215Z,212.00
2023-06-19T04:18:19.113Z,212.00
2023-06-19T04:19:19.137Z,216.00
2023-06-19T04:20:19.081Z,216.00
2023-06-19T04:21:19.079Z,216.00
2023-06-19T04:22:19.083Z,216.00
2023-06-19T04:23:19.242Z,224.00
2023-06-19T04:24:19.077Z,224.00
2023-06-19T04:25:19.035Z,228.00
2023-06-19T04:26:19.018Z,232.00
2023-06-19T04:27:19.002Z,232.00
2023-06-19T04:28:19.009Z,236.00
2023-06-19T04:29:19.000Z,240.00
2023-06-19T04:30:18.987Z,240.00
2023-06-19T04:31:18.999Z,244.00
2023-06-19T04:32:19.077Z,248.00
2023-06-19T04:33:19.067Z,248.00
2023-06-19T04:34:18.969Z,248.00
2023-06-19T04:35:18.964Z,248.00
2023-06-19T04:36:18.969Z,252.00
2023-06-19T04:37:18.952Z,252.00
2023-06-19T04:38:18.976Z,252.00
2023-06-19T04:39:18.954Z,256.00
2023-06-19T04:40:18.962Z,252.00
2023-06-19T04:41:18.926Z,248.00
2023-06-19T04:42:18.957Z,248.00
2023-06-19T04:43:18.931Z,240.00
2023-06-19T04:44:18.908Z,236.00
2023-06-19T04:45:18.930Z,232.00
2023-06-19T04:46:18.971Z,224.00
2023-06-19T04:47:19.098Z,216.00
2023-06-19T04:48:19.014Z,208.00
2023-06-19T04:49:19.485Z,204.00
2023-06-19T04:50:18.880Z,204.00
2023-06-19T04:51:18.873Z,200.00
2023-06-19T04:52:18.910Z,204.00
2023-06-19T04:53:18.865Z,212.00
2023-06-19T04:54:18.879Z,220.00
2023-06-19T04:55:18.848Z,232.00
2023-06-19T04:56:18.848Z,248.00
2023-06-19T04:57:18.836Z,272.00
2023-06-19T04:58:18.875Z,292.00
2023-06-19T04:59:18.831Z,320.00
2023-06-19T05:00:18.824Z,336.00
2023-06-19T05:01:19.036Z,348.00
2023-06-19T05:02:18.834Z,344.00
2023-06-19T05:03:18.810Z,340.00
2023-06-19T05:04:18.853Z,328.00
2023-06-19T05:05:20.241Z,312.00
2023-06-19T05:06:18.835Z,304.00
2023-06-19T05:07:18.845Z,292.00
2023-06-19T05:08:18.917Z,284.00
2023-06-19T05:09:18.792Z,284.00
2023-06-19T05:10:18.873Z,280.00
2023-06-19T05:11:18.790Z,288.00
2023-06-19T05:12:18.804Z,296.00
2023-06-19T05:13:18.804Z,304.00
2023-06-19T05:14:18.768Z,312.00
2023-06-19T05:15:18.768Z,320.00
2023-06-19T05:16:18.885Z,336.00
2023-06-19T05:17:18.858Z,348.00
2023-06-19T05:18:18.811Z,368.00
2023-06-19T05:19:18.766Z,384.00
2023-06-19T05:20:18.735Z,400.00
2023-06-19T05:21:18.751Z,412.00
2023-06-19T05:22:18.737Z,428.00
2023-06-19T05:23:18.708Z,432.00
2023-06-19T05:24:18.767Z,448.00
2023-06-19T05:25:18.736Z,456.00
2023-06-19T05:26:18.846Z,472.00
2023-06-19T05:27:18.748Z,484.00
2023-06-19T05:28:18.695Z,504.00
2023-06-19T05:29:18.676Z,524.00
2023-06-19T05:30:18.690Z,548.00
2023-06-19T05:31:18.727Z,564.00
2023-06-19T05:32:18.703Z,572.00
2023-06-19T05:33:18.705Z,576.00
2023-06-19T05:34:18.697Z,572.00
2023-06-19T05:35:18.691Z,564.00
2023-06-19T05:36:18.654Z,552.00
2023-06-19T05:37:18.882Z,552.00
2023-06-19T05:38:18.645Z,556.00
2023-06-19T05:39:18.662Z,560.00
2023-06-19T05:40:18.637Z,572.00
2023-06-19T05:41:18.647Z,592.00
2023-06-19T05:42:18.681Z,620.00
2023-06-19T05:43:18.647Z,672.00
2023-06-19T05:44:18.612Z,728.00
2023-06-19T05:45:18.626Z,792.00
2023-06-19T05:46:18.663Z,828.00
2023-06-19T05:47:18.624Z,840.00
2023-06-19T05:48:18.643Z,856.00
2023-06-19T05:49:18.595Z,884.00
2023-06-19T05:50:18.581Z,916.00
2023-06-19T05:51:18.594Z,928.00
2023-06-19T05:52:18.591Z,928.00
2023-06-19T05:53:18.565Z,924.00
2023-06-19T05:54:18.554Z,940.00
2023-06-19T05:55:18.599Z,948.00
2023-06-19T05:56:18.591Z,940.00
2023-06-19T05:57:18.546Z,924.00
2023-06-19T05:58:18.537Z,896.00
2023-06-19T05:59:18.522Z,872.00
2023-06-19T06:00:18.504Z,860.00
2023-06-19T06:01:18.553Z,860.00
2023-06-19T06:02:18.516Z,880.00
2023-06-19T06:03:18.492Z,892.00
2023-06-19T06:04:18.529Z,904.00
2023-06-19T06:05:18.519Z,904.00
2023-06-19T06:06:18.501Z,908.00
2023-06-19T06:07:18.495Z,928.00
2023-06-19T06:08:18.469Z,960.00
2023-06-19T06:09:18.463Z,1004.00
2023-06-19T06:10:18.481Z,1056.00
2023-06-19T06:11:18.464Z,1080.00
2023-06-19T06:12:18.456Z,1108.00
2023-06-19T06:13:18.484Z,1144.00
2023-06-19T06:14:18.461Z,1184.00
2023-06-19T06:15:18.435Z,1208.00
2023-06-19T06:16:18.468Z,1228.00
2023-06-19T06:17:18.649Z,1232.00
2023-06-19T06:18:18.441Z,1228.00
2023-06-19T06:19:18.441Z,1224.00
2023-06-19T06:20:18.407Z,1228.00
2023-06-19T06:21:18.397Z,1244.00
2023-06-19T06:22:18.389Z,1252.00
2023-06-19T06:23:18.421Z,1232.00
2023-06-19T06:24:18.427Z,1228.00
2023-06-19T06:25:18.397Z,1244.00
2023-06-19T06:26:18.398Z,1268.00
2023-06-19T06:27:18.408Z,1288.00
2023-06-19T06:28:18.390Z,1288.00
2023-06-19T06:29:18.384Z,1280.00
2023-06-19T06:30:21.336Z,1272.00
2023-06-19T06:31:18.403Z,1260.00
2023-06-19T06:32:18.379Z,1240.00
2023-06-19T06:33:18.382Z,1228.00
2023-06-19T06:34:18.367Z,1212.00
2023-06-19T06:35:18.354Z,1188.00
2023-06-19T06:36:29.464Z,1172.00
2023-06-19T06:37:18.333Z,1168.00
2023-06-19T06:38:18.332Z,1168.00
2023-06-19T06:39:18.321Z,1184.00
2023-06-19T06:40:18.336Z,1244.00
2023-06-19T06:41:18.305Z,1332.00
2023-06-19T06:42:18.347Z,1408.00
2023-06-19T06:43:18.326Z,1464.00
2023-06-19T06:44:18.298Z,1524.00
2023-06-19T06:45:18.277Z,1564.00
2023-06-19T06:46:18.387Z,1576.00
2023-06-19T06:47:18.294Z,1572.00
2023-06-19T06:48:18.276Z,1536.00
2023-06-19T06:49:18.274Z,1520.00
2023-06-19T06:50:18.254Z,1548.00
2023-06-19T06:51:18.289Z,1604.00
2023-06-19T06:52:18.293Z,1660.00
2023-06-19T06:53:18.297Z,1752.00
2023-06-19T06:54:18.304Z,1944.00
2023-06-19T06:55:18.268Z,2216.00
2023-06-19T06:56:18.266Z,2424.00
2023-06-19T06:57:18.817Z,2548.00
2023-06-19T06:58:18.267Z,2620.00
2023-06-19T06:59:18.453Z,2644.00
2023-06-19T07:00:18.217Z,2668.00
2023-06-19T07:01:18.253Z,2736.00
2023-06-19T07:02:18.617Z,2752.00
2023-06-19T07:03:18.307Z,2804.00
2023-06-19T07:04:18.224Z,2840.00
2023-06-19T07:05:18.220Z,2888.00
2023-06-19T07:06:18.202Z,2880.00
2023-06-19T07:07:18.242Z,2788.00
2023-06-19T07:08:18.185Z,2744.00
2023-06-19T07:09:18.212Z,2644.00
2023-06-19T07:10:18.198Z,2508.00
2023-06-19T07:11:18.199Z,2408.00
2023-06-19T07:12:18.214Z,2320.00
2023-06-19T07:13:18.167Z,2236.00
2023-06-19T07:14:18.149Z,2192.00
2023-06-19T07:15:18.148Z,2200.00
2023-06-19T07:16:18.196Z,2324.00
2023-06-19T07:17:21.093Z,2504.00
2023-06-19T07:18:18.350Z,2684.00
2023-06-19T07:19:18.144Z,2848.00
2023-06-19T07:20:18.161Z,3052.00
2023-06-19T07:21:18.144Z,3176.00
2023-06-19T07:22:18.132Z,3156.00
2023-06-19T07:23:18.116Z,2960.00
2023-06-19T07:24:18.188Z,2736.00
2023-06-19T07:25:18.129Z,2540.00
2023-06-19T07:26:18.121Z,2400.00
2023-06-19T07:27:18.132Z,2344.00
2023-06-19T07:28:18.129Z,2344.00
2023-06-19T07:29:18.097Z,2332.00
2023-06-19T07:30:18.186Z,2272.00
2023-06-19T07:31:18.104Z,2208.00
2023-06-19T07:32:18.082Z,2144.00
2023-06-19T07:33:18.102Z,2076.00
2023-06-19T07:34:18.127Z,2008.00
2023-06-19T07:35:18.086Z,1932.00
2023-06-19T07:36:18.121Z,1848.00
2023-06-19T07:37:18.106Z,1776.00
2023-06-19T07:38:18.070Z,1716.00
2023-06-19T07:39:18.086Z,1676.00
2023-06-19T07:40:18.061Z,1652.00
2023-06-19T07:41:18.064Z,1640.00
2023-06-19T07:42:18.066Z,1656.00
2023-06-19T07:43:18.089Z,1676.00
2023-06-19T07:44:18.079Z,1700.00
2023-06-19T07:45:18.079Z,1700.00
2023-06-19T07:46:18.074Z,1704.00
2023-06-19T07:47:18.047Z,1700.00
2023-06-19T07:48:18.041Z,1692.00
2023-06-19T07:49:18.068Z,1676.00
2023-06-19T07:50:18.135Z,1656.00
2023-06-19T07:51:18.014Z,1636.00
2023-06-19T07:52:18.018Z,1624.00
2023-06-19T07:53:18.026Z,1612.00
2023-06-19T07:54:17.996Z,1616.00
2023-06-19T07:55:17.988Z,1620.00
2023-06-19T07:56:17.990Z,1632.00
2023-06-19T07:57:18.007Z,1652.00
2023-06-19T07:58:17.972Z,1672.00
2023-06-19T07:59:17.969Z,1704.00
2023-06-19T08:00:18.000Z,1752.00
2023-06-19T08:01:17.981Z,1808.00
2023-06-19T08:02:17.973Z,1868.00
2023-06-19T08:03:18.058Z,1940.00
2023-06-19T08:04:17.999Z,2016.00
2023-06-19T08:05:18.047Z,2096.00
2023-06-19T08:06:18.101Z,2196.00
2023-06-19T08:07:17.990Z,2304.00
2023-06-19T08:08:17.943Z,2416.00
2023-06-19T08:09:17.941Z,2544.00
2023-06-19T08:10:17.936Z,2684.00
2023-06-19T08:11:17.930Z,2840.00
2023-06-19T08:12:17.942Z,3012.00
2023-06-19T08:13:17.949Z,3160.00
2023-06-19T08:14:17.936Z,3312.00
2023-06-19T08:15:17.916Z,3452.00
2023-06-19T08:16:17.946Z,3580.00
2023-06-19T08:17:18.133Z,3700.00
2023-06-19T08:18:17.900Z,3776.00
2023-06-19T08:19:17.905Z,3848.00
2023-06-19T08:20:17.898Z,3948.00
2023-06-19T08:21:18.120Z,4036.00
2023-06-19T08:22:17.917Z,4112.00
2023-06-19T08:23:17.912Z,4136.00
2023-06-19T08:24:17.887Z,4060.00
2023-06-19T08:25:17.877Z,3972.00
2023-06-19T08:26:17.870Z,3888.00
2023-06-19T08:27:17.902Z,3764.00
2023-06-19T08:28:17.856Z,3648.00
2023-06-19T08:29:17.852Z,3572.00
2023-06-19T08:30:17.859Z,3552.00
2023-06-19T08:31:17.896Z,3548.00
2023-06-19T08:32:17.845Z,3544.00
2023-06-19T08:33:17.853Z,3560.00
2023-06-19T08:34:17.844Z,3600.00
2023-06-19T08:35:17.844Z,3644.00
2023-06-19T08:36:17.826Z,3744.00
2023-06-19T08:37:17.830Z,3832.00
2023-06-19T08:38:17.995Z,4044.00
2023-06-19T08:39:17.851Z,4264.00
2023-06-19T08:40:17.881Z,4436.00
2023-06-19T08:41:17.831Z,4796.00
2023-06-19T08:42:17.824Z,5328.00
2023-06-19T08:43:17.825Z,5804.00
2023-06-19T08:44:17.858Z,6444.00
2023-06-19T08:45:17.805Z,6624.00
2023-06-19T08:46:17.817Z,6828.00
2023-06-19T08:47:17.839Z,6948.00
2023-06-19T08:48:17.816Z,6996.00
2023-06-19T08:49:17.813Z,6956.00
2023-06-19T08:50:17.870Z,6832.00
2023-06-19T08:51:17.829Z,6752.00
2023-06-19T08:52:17.805Z,7012.00
2023-06-19T08:53:17.805Z,7960.00
2023-06-19T08:54:17.874Z,7836.00
2023-06-19T08:55:17.788Z,7932.00
2023-06-19T08:56:17.775Z,7440.00
2023-06-19T08:57:17.823Z,6992.00
2023-06-19T08:58:17.789Z,6540.00
2023-06-19T08:59:17.970Z,6196.00
2023-06-19T09:00:17.793Z,6008.00
2023-06-19T09:01:17.808Z,5936.00
2023-06-19T09:02:17.816Z,5932.00
2023-06-19T09:03:17.850Z,5888.00
2023-06-19T09:04:17.890Z,5852.00
2023-06-19T09:05:17.817Z,5868.00
2023-06-19T09:06:17.893Z,5936.00
2023-06-19T09:07:17.836Z,6024.00
2023-06-19T09:08:17.758Z,6092.00
2023-06-19T09:09:17.770Z,6072.00
2023-06-19T09:10:17.825Z,5968.00
2023-06-19T09:11:17.774Z,5864.00
2023-06-19T09:12:17.982Z,5744.00
2023-06-19T09:13:17.771Z,5652.00
2023-06-19T09:14:17.827Z,5604.00
2023-06-19T09:15:17.739Z,5592.00
2023-06-19T09:16:17.752Z,5616.00
2023-06-19T09:17:17.740Z,5600.00
2023-06-19T09:18:17.741Z,5596.00
2023-06-19T09:19:17.721Z,5552.00
2023-06-19T09:20:17.757Z,5556.00
2023-06-19T09:21:17.723Z,5704.00
2023-06-19T09:22:17.756Z,5908.00
2023-06-19T09:23:17.761Z,6144.00
2023-06-19T09:24:17.766Z,6280.00
2023-06-19T09:25:17.718Z,6524.00
2023-06-19T09:26:17.759Z,6860.00
2023-06-19T09:27:17.707Z,6884.00
2023-06-19T09:28:17.706Z,6652.00
2023-06-19T09:29:20.241Z,6348.00
2023-06-19T09:30:17.704Z,6196.00
2023-06-19T09:31:17.708Z,6076.00
2023-06-19T09:32:17.717Z,5908.00
2023-06-19T09:33:17.794Z,5700.00
2023-06-19T09:34:17.891Z,5476.00
2023-06-19T09:35:17.704Z,5132.00
2023-06-19T09:36:17.695Z,4896.00
2023-06-19T09:37:17.702Z,4764.00
2023-06-19T09:38:17.667Z,4752.00
2023-06-19T09:39:17.694Z,4760.00
2023-06-19T09:40:17.684Z,4776.00
2023-06-19T09:41:17.870Z,4788.00
2023-06-19T09:42:17.698Z,4796.00
2023-06-19T09:43:17.659Z,4864.00
2023-06-19T09:44:17.692Z,4992.00
2023-06-19T09:45:17.666Z,5112.00
2023-06-19T09:46:17.690Z,5228.00
2023-06-19T09:47:17.720Z,5348.00
2023-06-19T09:48:17.701Z,5548.00
2023-06-19T09:49:17.665Z,5640.00
2023-06-19T09:50:17.865Z,5868.00
2023-06-19T09:51:17.657Z,6128.00
2023-06-19T09:52:17.659Z,6248.00
2023-06-19T09:53:18.079Z,6340.00
2023-06-19T09:54:17.650Z,6476.00
2023-06-19T09:55:17.672Z,6596.00
2023-06-19T09:56:17.668Z,6796.00
2023-06-19T09:57:17.636Z,7192.00
2023-06-19T09:58:17.725Z,7196.00
2023-06-19T09:59:17.662Z,7500.00
2023-06-19T10:00:17.698Z,8056.00
2023-06-19T10:01:17.642Z,8324.00
2023-06-19T10:02:17.761Z,7868.00
2023-06-19T10:03:17.815Z,7328.00
2023-06-19T10:04:17.652Z,7264.00
2023-06-19T10:05:17.652Z,7872.00
2023-06-19T10:06:17.652Z,7876.00
2023-06-19T10:07:17.627Z,7768.00
2023-06-19T10:08:17.737Z,7284.00
2023-06-19T10:09:17.632Z,7420.00
2023-06-19T10:10:17.633Z,7440.00
2023-06-19T10:11:17.623Z,7544.00
2023-06-19T10:12:17.625Z,7648.00
2023-06-19T10:13:17.823Z,7792.00
2023-06-19T10:14:17.734Z,7444.00
2023-06-19T10:15:17.665Z,7280.00
2023-06-19T10:16:17.666Z,7328.00
2023-06-19T10:17:17.639Z,7908.00
2023-06-19T10:18:17.631Z,7968.00
2023-06-19T10:19:17.680Z,7796.00
2023-06-19T10:20:17.645Z,7332.00
2023-06-19T10:21:17.661Z,7336.00
2023-06-19T10:22:17.650Z,7152.00
2023-06-19T10:23:17.617Z,7092.00
2023-06-19T10:24:17.691Z,7128.00
2023-06-19T10:25:17.624Z,7220.00
2023-06-19T10:26:17.605Z,6984.00
2023-06-19T10:27:17.633Z,7020.00
2023-06-19T10:28:17.637Z,7252.00
2023-06-19T10:29:17.622Z,7096.00
2023-06-19T10:30:17.665Z,6732.00
2023-06-19T10:31:17.626Z,6488.00
2023-06-19T10:32:17.621Z,6292.00
2023-06-19T10:33:17.622Z,6048.00
2023-06-19T10:34:17.625Z,5944.00
2023-06-19T10:35:17.609Z,5964.00
2023-06-19T10:36:17.643Z,6244.00
2023-06-19T10:37:17.606Z,6380.00
2023-06-19T10:38:17.657Z,6124.00
2023-06-19T10:39:17.592Z,6232.00
2023-06-19T10:40:17.682Z,6500.00
2023-06-19T10:41:17.645Z,6252.00
2023-06-19T10:42:17.657Z,6128.00
2023-06-19T10:43:17.609Z,6224.00
2023-06-19T10:44:17.632Z,6104.00
2023-06-19T10:45:17.621Z,5852.00
2023-06-19T10:46:17.692Z,5920.00
2023-06-19T10:47:17.603Z,5944.00
2023-06-19T10:48:17.630Z,5912.00
2023-06-19T10:49:17.603Z,6152.00
2023-06-19T10:50:17.690Z,6544.00
2023-06-19T10:51:17.623Z,6548.00
2023-06-19T10:52:17.608Z,6540.00
2023-06-19T10:53:17.597Z,6556.00
2023-06-19T10:54:17.612Z,6236.00
2023-06-19T10:55:17.611Z,6052.00
2023-06-19T10:56:17.600Z,5984.00
2023-06-19T10:57:17.619Z,6128.00
2023-06-19T10:58:17.602Z,6312.00
2023-06-19T10:59:17.597Z,6524.00
2023-06-19T11:00:17.659Z,6492.00
2023-06-19T11:01:17.614Z,6480.00
2023-06-19T11:02:17.871Z,6800.00
2023-06-19T11:03:17.758Z,6900.00
2023-06-19T11:04:17.624Z,6832.00
2023-06-19T11:05:17.647Z,6804.00
2023-06-19T11:06:17.648Z,6768.00
2023-06-19T11:07:17.607Z,6908.00
2023-06-19T11:08:17.630Z,6968.00
2023-06-19T11:09:17.628Z,6880.00
2023-06-19T11:10:17.608Z,6840.00
2023-06-19T11:11:17.599Z,6248.00
2023-06-19T11:12:17.618Z,6052.00
2023-06-19T11:13:17.623Z,5908.00
2023-06-19T11:14:17.637Z,5808.00
2023-06-19T11:15:17.835Z,6260.00
2023-06-19T11:16:17.679Z,6508.00
2023-06-19T11:17:17.766Z,6516.00
2023-06-19T11:18:17.698Z,6040.00
2023-06-19T11:19:17.626Z,5908.00
2023-06-19T11:20:17.627Z,5972.00
2023-06-19T11:21:17.824Z,5928.00
2023-06-19T11:22:17.654Z,5936.00
2023-06-19T11:23:17.634Z,6068.00
2023-06-19T11:24:17.733Z,6136.00
2023-06-19T11:25:17.618Z,6244.00
2023-06-19T11:26:17.618Z,6380.00
2023-06-19T11:27:17.673Z,6428.00
2023-06-19T11:28:17.819Z,6432.00
2023-06-19T11:29:17.648Z,6436.00
2023-06-19T11:30:17.636Z,6448.00
2023-06-19T11:31:17.696Z,6420.00
2023-06-19T11:32:17.644Z,6380.00
2023-06-19T11:33:17.680Z,6340.00
2023-06-19T11:34:17.715Z,6288.00
2023-06-19T11:35:17.680Z,6224.00
2023-06-19T11:36:17.643Z,6184.00
2023-06-19T11:37:17.648Z,6136.00
2023-06-19T11:38:17.618Z,6064.00
2023-06-19T11:39:17.654Z,6040.00
2023-06-19T11:40:17.613Z,5916.00
2023-06-19T11:41:17.616Z,5780.00
2023-06-19T11:42:17.632Z,5792.00
2023-06-19T11:43:17.637Z,5772.00
2023-06-19T11:44:17.650Z,5376.00
2023-06-19T11:45:17.645Z,5668.00
2023-06-19T11:46:17.690Z,5628.00
2023-06-19T11:47:17.631Z,5580.00
2023-06-19T11:48:17.638Z,5404.00
2023-06-19T11:49:17.626Z,4724.00
2023-06-19T11:50:17.665Z,4796.00
2023-06-19T11:51:17.649Z,4464.00
2023-06-19T11:52:17.640Z,5224.00
2023-06-19T11:53:17.643Z,5292.00
2023-06-19T11:54:17.696Z,5352.00
2023-06-19T11:55:17.655Z,5420.00
2023-06-19T11:56:17.656Z,5416.00
2023-06-19T11:57:17.631Z,5364.00
2023-06-19T11:58:17.631Z,5324.00
2023-06-19T11:59:17.630Z,5312.00
2023-06-19T12:00:17.642Z,5292.00
2023-06-19T12:01:17.641Z,5280.00
2023-06-19T12:02:17.809Z,5280.00
2023-06-19T12:03:17.719Z,5276.00
2023-06-19T12:04:17.858Z,5268.00
2023-06-19T12:05:17.635Z,5260.00
2023-06-19T12:06:17.649Z,5248.00
2023-06-19T12:07:17.634Z,5228.00
2023-06-19T12:08:17.664Z,5196.00
2023-06-19T12:09:17.628Z,5196.00
2023-06-19T12:10:17.634Z,5164.00
2023-06-19T12:11:17.645Z,5100.00
2023-06-19T12:12:17.657Z,5020.00
2023-06-19T12:13:17.710Z,4708.00
2023-06-19T12:14:17.700Z,4668.00
2023-06-19T12:15:17.664Z,4488.00
2023-06-19T12:16:17.630Z,4660.00
2023-06-19T12:17:17.700Z,4556.00
2023-06-19T12:18:17.648Z,4676.00
2023-06-19T12:19:20.789Z,4476.00
2023-06-19T12:20:17.690Z,4492.00
2023-06-19T12:21:32.658Z,4308.00
2023-06-19T12:22:17.696Z,4612.00
2023-06-19T12:23:17.643Z,4440.00
2023-06-19T12:24:17.731Z,4132.00
2023-06-19T12:25:17.711Z,4088.00
2023-06-19T12:26:17.658Z,4244.00
2023-06-19T12:27:17.679Z,4572.00
2023-06-19T12:28:17.654Z,4696.00
2023-06-19T12:29:17.672Z,4912.00